CAC weather

Campo Capote Airport
Velez, Santander Department, Colombia

Public forecast

Using degrees Celsius for public forecast. Weather courtesy of forecast.io.

Closest aviation weather report (METAR) to Campo Capote Airport

Closest report is YariguĂ­es Airport, 17.7 nm (32.8 km) NNE. Retrieved 2020/01/27 11:00 UTC (47 minutes ago):

SKEJ 271100Z VRB02KT 9999 SCT015 25/24 A2989

Closest aviation forecast (TAF) to Campo Capote Airport

Closest forecast is Palonegro Airport, 49.1 nm (91.0 km) ENE. Retrieved 2020/01/27 06:30 UTC (5 hours ago):

TAF SKBG 270430Z 2706/2806 00000KT 9999 SCT010 BKN070 PROB40 TEMPO 2710/2713 2000 BCFG BKN005 BECMG 2715/2717 32010KT TX26/2718Z TN18/2711Z